Time;durP1;ratioP1;P1;durP2;ratioP2;P2;SDS_P1;SDS_P2;PMS_P1;PMS_P2;Temp;Humidity;BMP_temperature;BMP_pressure;BME280_temperature;BME280_humidity;BME280_pressure;Samples;Min_cycle;Max_cycle;Signal;HPM_P1;HPM_P2
2023/03/28 00:00:57;;;;;;;;;;;5.30;99.90;;;;;;5060884;28;20367;-94
2023/03/28 00:03:24;;;;;;;;;;;5.20;99.90;;;;;;5063349;28;19921;-94
2023/03/28 00:05:54;;;;;;;;;;;5.20;99.90;;;;;;5057739;28;19913;-94
2023/03/28 00:08:22;;;;;;;;;;;5.20;99.90;;;;;;5064938;28;19924;-94
2023/03/28 00:10:48;;;;;;;;;;;5.20;99.90;;;;;;5062864;28;19988;-96
2023/03/28 00:13:14;;;;;;;;;;;5.10;99.90;;;;;;5059324;28;19913;-96
2023/03/28 00:15:40;;;;;;;;;;;5.20;99.90;;;;;;5079787;28;19991;-93
2023/03/28 00:18:07;;;;;;;;;;;5.10;99.90;;;;;;5074960;28;19897;-91
2023/03/28 00:20:37;;;;;;;;;;;5.10;99.90;;;;;;5069289;28;19913;-96
2023/03/28 00:23:03;;;;;;;;;;;5.20;99.90;;;;;;5056941;28;19924;-93
2023/03/28 00:25:31;;;;;;;;;;;5.00;99.90;;;;;;5056929;28;19965;-94
2023/03/28 00:27:57;;;;;;;;;;;5.10;99.90;;;;;;5056211;28;19915;-95
2023/03/28 00:30:22;;;;;;;;;;;5.00;99.90;;;;;;5054645;28;20007;-94
2023/03/28 00:32:48;;;;;;;;;;;5.00;99.90;;;;;;5062962;28;19909;-91
2023/03/28 00:35:14;;;;;;;;;;;5.00;99.90;;;;;;5047560;28;19999;-95
2023/03/28 00:37:40;;;;;;;;;;;5.00;99.90;;;;;;5060236;28;19908;-95
2023/03/28 00:40:06;;;;;;;;;;;4.90;99.90;;;;;;5057392;28;19920;-94
2023/03/28 00:42:32;;;;;;;;;;;4.90;99.90;;;;;;5058466;28;19908;-93
2023/03/28 00:44:58;;;;;;;;;;;4.90;99.90;;;;;;5057501;28;20261;-96
2023/03/28 00:47:26;;;;;;;;;;;4.90;99.90;;;;;;5056319;28;20046;-95
2023/03/28 00:50:18;;;;;;;;;;;4.80;99.90;;;;;;5057169;28;19923;-93
2023/03/28 00:52:48;;;;;;;;;;;4.80;99.90;;;;;;5055371;28;19913;-92
2023/03/28 00:55:23;;;;;;;;;;;4.80;99.90;;;;;;5056552;28;19909;-94
2023/03/28 00:57:49;;;;;;;;;;;4.70;99.90;;;;;;5055515;28;19909;-94
2023/03/28 01:00:17;;;;;;;;;;;4.70;99.90;;;;;;5046451;28;19951;-93
2023/03/28 01:02:49;;;;;;;;;;;4.70;99.90;;;;;;5045133;28;20012;-94
2023/03/28 01:05:16;;;;;;;;;;;4.70;99.90;;;;;;5064676;28;20011;-95
2023/03/28 01:07:44;;;;;;;;;;;4.80;99.90;;;;;;5057780;28;19913;-94
2023/03/28 01:10:10;;;;;;;;;;;4.70;99.90;;;;;;5062589;28;19909;-95
2023/03/28 01:12:36;;;;;;;;;;;4.70;99.90;;;;;;5057005;28;19916;-92
2023/03/28 01:15:03;;;;;;;;;;;4.70;99.90;;;;;;5048196;28;20275;-95
2023/03/28 01:17:29;;;;;;;;;;;4.60;99.90;;;;;;5060612;28;19951;-95
2023/03/28 01:20:13;;;;;;;;;;;4.60;99.90;;;;;;5041973;28;20253;-94
2023/03/28 01:23:02;;;;;;;;;;;4.50;99.90;;;;;;5058441;28;19921;-96
2023/03/28 01:25:45;;;;;;;;;;;4.60;99.90;;;;;;5062945;28;19917;-94
2023/03/28 01:28:30;;;;;;;;;;;4.60;99.90;;;;;;5060305;28;19927;-93
2023/03/28 01:31:19;;;;;;;;;;;4.50;99.90;;;;;;5068975;28;19915;-93
2023/03/28 01:34:07;;;;;;;;;;;4.50;99.90;;;;;;5072908;28;19909;-95
2023/03/28 01:36:53;;;;;;;;;;;4.50;99.90;;;;;;5077187;28;19905;-92
2023/03/28 01:39:31;;;;;;;;;;;4.40;99.90;;;;;;5076867;28;19901;-94
2023/03/28 01:42:02;;;;;;;;;;;4.40;99.90;;;;;;5073211;28;19904;-93
2023/03/28 01:44:59;;;;;;;;;;;4.40;99.90;;;;;;5081957;28;19905;-93
2023/03/28 01:47:28;;;;;;;;;;;4.40;99.90;;;;;;5048169;28;19912;-94
2023/03/28 01:50:01;;;;;;;;;;;4.40;99.90;;;;;;5061400;28;19927;-94
2023/03/28 01:52:44;;;;;;;;;;;;;;;;;;;;;
2023/03/28 01:55:17;;;;;;;;;;;4.30;99.90;;;;;;5063893;28;20331;-95
2023/03/28 01:57:49;;;;;;;;;;;4.30;99.90;;;;;;5061634;28;19931;-95
2023/03/28 02:00:32;;;;;;;;;;;4.30;99.90;;;;;;5057422;28;20034;-95
2023/03/28 02:02:59;;;;;;;;;;;4.30;99.90;;;;;;5057715;28;19917;-93
2023/03/28 02:05:29;;;;;;;;;;;4.20;99.90;;;;;;5056679;28;19917;-96
2023/03/28 02:07:59;;;;;;;;;;;4.20;99.90;;;;;;5057237;28;19978;-93
2023/03/28 02:10:39;;;;;;;;;;;;;;;;;;;;;
2023/03/28 02:13:13;;;;;;;;;;;4.20;99.90;;;;;;5067722;28;20036;-96
2023/03/28 02:15:40;;;;;;;;;;;4.20;99.90;;;;;;5057730;28;19992;-95
2023/03/28 02:18:14;;;;;;;;;;;4.20;99.90;;;;;;5062530;28;19909;-95
2023/03/28 02:20:40;;;;;;;;;;;4.10;99.90;;;;;;5067805;28;19974;-94
2023/03/28 02:23:21;;;;;;;;;;;4.10;99.90;;;;;;5060883;28;19928;-95
2023/03/28 02:25:47;;;;;;;;;;;4.10;99.90;;;;;;5068599;28;19904;-91
2023/03/28 02:28:13;;;;;;;;;;;4.10;99.90;;;;;;5075664;28;19976;-93
2023/03/28 02:30:44;;;;;;;;;;;4.00;99.90;;;;;;5072305;28;19920;-95
2023/03/28 02:33:29;;;;;;;;;;;4.00;99.90;;;;;;5061303;28;19913;-95
2023/03/28 02:36:08;;;;;;;;;;;4.00;99.90;;;;;;5059115;28;20300;-96
2023/03/28 02:38:39;;;;;;;;;;;4.00;99.90;;;;;;5057682;28;19931;-96
2023/03/28 02:41:04;;;;;;;;;;;4.00;99.90;;;;;;5057428;28;19916;-94
2023/03/28 02:43:33;;;;;;;;;;;3.90;99.90;;;;;;5057969;28;19913;-95
2023/03/28 02:46:10;;;;;;;;;;;3.90;99.90;;;;;;5059855;28;20375;-95
2023/03/28 02:48:36;;;;;;;;;;;3.90;99.90;;;;;;5059192;28;19916;-95
2023/03/28 02:51:21;;;;;;;;;;;3.80;99.90;;;;;;5058231;28;19920;-95
2023/03/28 02:54:02;;;;;;;;;;;3.80;99.90;;;;;;5055871;28;19916;-96
2023/03/28 02:56:40;;;;;;;;;;;3.80;99.90;;;;;;5058338;28;19958;-95
2023/03/28 02:59:16;;;;;;;;;;;3.80;99.90;;;;;;5059947;28;19909;-96
2023/03/28 03:01:42;;;;;;;;;;;3.70;99.90;;;;;;5059862;28;19916;-94
2023/03/28 03:04:10;;;;;;;;;;;3.70;99.90;;;;;;5059234;28;19916;-93
2023/03/28 03:06:36;;;;;;;;;;;3.70;99.90;;;;;;5061459;28;19983;-93
2023/03/28 03:09:03;;;;;;;;;;;3.70;99.90;;;;;;5058650;28;19896;-92
2023/03/28 03:11:29;;;;;;;;;;;3.60;99.90;;;;;;5061947;28;19920;-95
2023/03/28 03:14:05;;;;;;;;;;;3.60;99.90;;;;;;5059752;28;20308;-95
2023/03/28 03:16:30;;;;;;;;;;;3.60;99.90;;;;;;5056563;28;19986;-95
2023/03/28 03:18:58;;;;;;;;;;;3.60;99.90;;;;;;5056077;28;19909;-94
2023/03/28 03:21:27;;;;;;;;;;;3.70;99.90;;;;;;5041099;28;19917;-96
2023/03/28 03:23:58;;;;;;;;;;;3.60;99.90;;;;;;5039832;28;19924;-92
2023/03/28 03:26:40;;;;;;;;;;;3.60;99.90;;;;;;5061650;28;19920;-93
2023/03/28 03:29:05;;;;;;;;;;;3.50;99.90;;;;;;5060513;28;19909;-95
2023/03/28 03:31:31;;;;;;;;;;;3.50;99.90;;;;;;5061958;28;19962;-95
2023/03/28 03:33:57;;;;;;;;;;;3.50;99.90;;;;;;5059271;28;19970;-96
2023/03/28 03:36:22;;;;;;;;;;;3.50;99.90;;;;;;5061881;28;20019;-95
2023/03/28 03:38:48;;;;;;;;;;;3.50;99.90;;;;;;5060097;28;19920;-96
2023/03/28 03:41:17;;;;;;;;;;;3.50;99.90;;;;;;5059688;28;19937;-96
2023/03/28 03:43:42;;;;;;;;;;;3.40;99.90;;;;;;5058054;28;19917;-95
2023/03/28 03:46:08;;;;;;;;;;;3.40;99.90;;;;;;5057235;28;20008;-96
2023/03/28 03:48:33;;;;;;;;;;;3.40;99.90;;;;;;5057663;28;20345;-95
2023/03/28 03:50:59;;;;;;;;;;;3.40;99.90;;;;;;5056629;28;20361;-95
2023/03/28 03:53:27;;;;;;;;;;;3.30;99.90;;;;;;5060028;28;19944;-95
2023/03/28 03:55:53;;;;;;;;;;;3.30;99.90;;;;;;5063326;28;20103;-95
2023/03/28 03:58:19;;;;;;;;;;;3.30;99.90;;;;;;5058910;28;19912;-96
2023/03/28 04:01:02;;;;;;;;;;;3.30;99.90;;;;;;5065602;28;19920;-96
2023/03/28 04:03:28;;;;;;;;;;;3.30;99.90;;;;;;5069945;28;19921;-95
2023/03/28 04:05:56;;;;;;;;;;;3.20;99.90;;;;;;5058048;28;19916;-94
2023/03/28 04:08:22;;;;;;;;;;;3.20;99.90;;;;;;5062830;28;19999;-95
2023/03/28 04:10:52;;;;;;;;;;;3.20;99.90;;;;;;5058395;28;19923;-95
2023/03/28 04:13:17;;;;;;;;;;;3.20;99.90;;;;;;5041477;28;19959;-95
2023/03/28 04:15:44;;;;;;;;;;;3.20;99.90;;;;;;5062503;28;19913;-94
2023/03/28 04:18:10;;;;;;;;;;;3.20;99.90;;;;;;5060295;28;19916;-92
2023/03/28 04:20:36;;;;;;;;;;;3.10;99.90;;;;;;5059528;28;19909;-94
2023/03/28 04:23:04;;;;;;;;;;;3.10;99.90;;;;;;5054389;28;19947;-95
2023/03/28 04:25:32;;;;;;;;;;;3.10;99.90;;;;;;5065708;28;19916;-95
2023/03/28 04:28:00;;;;;;;;;;;3.10;99.90;;;;;;5067106;28;19912;-92
2023/03/28 04:30:26;;;;;;;;;;;3.10;99.90;;;;;;5068352;28;19908;-93
2023/03/28 04:32:54;;;;;;;;;;;3.20;99.90;;;;;;5064873;28;19980;-95
2023/03/28 04:35:20;;;;;;;;;;;3.10;99.90;;;;;;5099022;28;19897;-92
2023/03/28 04:37:46;;;;;;;;;;;3.10;99.90;;;;;;5075806;28;19908;-92
2023/03/28 04:40:15;;;;;;;;;;;3.10;99.90;;;;;;5067106;28;19915;-90
2023/03/28 04:42:50;;;;;;;;;;;3.00;99.90;;;;;;5072902;28;19909;-93
2023/03/28 04:45:25;;;;;;;;;;;3.00;99.90;;;;;;5067917;28;19980;-93
2023/03/28 04:47:52;;;;;;;;;;;3.00;99.90;;;;;;5089850;28;19912;-94
2023/03/28 04:50:20;;;;;;;;;;;3.00;99.90;;;;;;5081842;28;19988;-93
2023/03/28 04:52:46;;;;;;;;;;;3.00;99.90;;;;;;5084622;28;19933;-94
2023/03/28 04:55:11;;;;;;;;;;;3.00;99.90;;;;;;5086124;28;19897;-94
2023/03/28 04:57:39;;;;;;;;;;;3.00;99.90;;;;;;5086724;28;19912;-92
2023/03/28 05:00:08;;;;;;;;;;;3.00;99.90;;;;;;5091320;28;19980;-92
2023/03/28 05:02:34;;;;;;;;;;;2.90;99.90;;;;;;5093744;28;19923;-92
2023/03/28 05:05:00;;;;;;;;;;;2.90;99.90;;;;;;5081501;28;19924;-94
2023/03/28 05:07:26;;;;;;;;;;;2.90;99.90;;;;;;5064895;28;19908;-93
2023/03/28 05:09:51;;;;;;;;;;;2.90;99.90;;;;;;5045409;28;19963;-91
2023/03/28 05:12:17;;;;;;;;;;;2.80;99.90;;;;;;5067080;28;19908;-92
2023/03/28 05:14:43;;;;;;;;;;;2.80;99.90;;;;;;5058785;28;19913;-91
2023/03/28 05:17:09;;;;;;;;;;;2.80;99.90;;;;;;5063751;28;20010;-89
2023/03/28 05:19:37;;;;;;;;;;;2.80;99.90;;;;;;5059867;28;19909;-94
2023/03/28 05:22:03;;;;;;;;;;;2.80;99.90;;;;;;5061346;28;19909;-92
2023/03/28 05:24:28;;;;;;;;;;;2.90;99.90;;;;;;5056722;28;19946;-90
2023/03/28 05:26:54;;;;;;;;;;;2.80;99.90;;;;;;5066539;28;19953;-91
2023/03/28 05:29:19;;;;;;;;;;;2.80;99.90;;;;;;5062983;28;19909;-91
2023/03/28 05:31:45;;;;;;;;;;;2.90;99.90;;;;;;5087174;28;20018;-91
2023/03/28 05:34:10;;;;;;;;;;;2.80;99.90;;;;;;5081160;28;20284;-92
2023/03/28 05:36:36;;;;;;;;;;;2.80;99.90;;;;;;5060598;28;19930;-91
2023/03/28 05:39:03;;;;;;;;;;;2.80;99.90;;;;;;5058720;28;19964;-91
2023/03/28 05:41:29;;;;;;;;;;;2.80;99.90;;;;;;5058155;28;20035;-90
2023/03/28 05:43:55;;;;;;;;;;;2.80;99.90;;;;;;5041802;28;20007;-94
2023/03/28 05:46:20;;;;;;;;;;;2.80;99.90;;;;;;5059297;28;19968;-93
2023/03/28 05:48:46;;;;;;;;;;;2.80;99.90;;;;;;5058698;28;19908;-94
2023/03/28 05:51:11;;;;;;;;;;;2.80;99.90;;;;;;5062486;28;20430;-91
2023/03/28 05:53:37;;;;;;;;;;;2.80;99.90;;;;;;5059097;28;20415;-89
2023/03/28 05:56:03;;;;;;;;;;;2.90;99.90;;;;;;5059081;28;19912;-88
2023/03/28 05:58:28;;;;;;;;;;;2.80;99.90;;;;;;5059252;28;19919;-93
2023/03/28 06:00:55;;;;;;;;;;;2.80;99.90;;;;;;5061071;28;19908;-88
2023/03/28 06:03:21;;;;;;;;;;;2.80;99.90;;;;;;5058175;28;19904;-90
2023/03/28 06:05:46;;;;;;;;;;;2.80;99.90;;;;;;5078864;28;19915;-91
2023/03/28 06:08:12;;;;;;;;;;;2.70;99.90;;;;;;5064644;28;19994;-89
2023/03/28 06:10:37;;;;;;;;;;;2.90;99.90;;;;;;5064487;28;19908;-91
2023/03/28 06:13:03;;;;;;;;;;;2.70;99.90;;;;;;5064206;28;20005;-91
2023/03/28 06:15:31;;;;;;;;;;;2.70;99.90;;;;;;5067999;28;19909;-95
2023/03/28 06:17:59;;;;;;;;;;;2.70;99.90;;;;;;5088001;28;19991;-91
2023/03/28 06:20:24;;;;;;;;;;;2.70;99.90;;;;;;5050297;28;19912;-94
2023/03/28 06:22:50;;;;;;;;;;;2.80;99.90;;;;;;5067320;28;19943;-92
2023/03/28 06:25:16;;;;;;;;;;;2.70;99.90;;;;;;5047536;28;19926;-90
2023/03/28 06:27:44;;;;;;;;;;;2.80;99.90;;;;;;5071289;28;19912;-93
2023/03/28 06:30:14;;;;;;;;;;;2.80;99.90;;;;;;5070270;28;19908;-92
2023/03/28 06:32:40;;;;;;;;;;;2.80;99.90;;;;;;5046018;28;19919;-95
2023/03/28 06:35:06;;;;;;;;;;;2.70;99.90;;;;;;5050714;28;19913;-91
2023/03/28 06:37:32;;;;;;;;;;;2.90;99.90;;;;;;5066589;28;19908;-92
2023/03/28 06:39:57;;;;;;;;;;;2.90;99.90;;;;;;5060631;28;19908;-92
2023/03/28 06:42:23;;;;;;;;;;;2.90;99.90;;;;;;5065239;28;19908;-92
2023/03/28 06:44:48;;;;;;;;;;;2.90;99.90;;;;;;5068421;28;19916;-92
2023/03/28 06:47:16;;;;;;;;;;;2.90;99.90;;;;;;5058092;28;19908;-92
2023/03/28 06:49:42;;;;;;;;;;;2.90;99.90;;;;;;5062858;28;19937;-95
2023/03/28 06:52:08;;;;;;;;;;;3.00;99.90;;;;;;5059031;28;19909;-92
2023/03/28 06:54:33;;;;;;;;;;;2.90;99.90;;;;;;5061688;28;19913;-95
2023/03/28 06:57:01;;;;;;;;;;;3.00;99.90;;;;;;5058116;28;19920;-94
2023/03/28 06:59:28;;;;;;;;;;;3.10;99.90;;;;;;5058537;28;20349;-93
2023/03/28 07:01:53;;;;;;;;;;;3.00;99.90;;;;;;5065930;28;19955;-93
2023/03/28 07:04:19;;;;;;;;;;;3.10;99.90;;;;;;5079550;28;19917;-94
2023/03/28 07:06:45;;;;;;;;;;;3.10;99.90;;;;;;5063250;28;19917;-93
2023/03/28 07:09:11;;;;;;;;;;;3.10;99.90;;;;;;5073838;28;19908;-94
2023/03/28 07:11:36;;;;;;;;;;;3.20;99.90;;;;;;5066172;28;19909;-93
2023/03/28 07:14:02;;;;;;;;;;;3.30;99.90;;;;;;5066617;28;19909;-94
2023/03/28 07:16:28;;;;;;;;;;;3.30;99.90;;;;;;5067962;28;19909;-94
2023/03/28 07:18:53;;;;;;;;;;;3.40;99.90;;;;;;5079920;28;19920;-93
2023/03/28 07:21:19;;;;;;;;;;;3.30;99.90;;;;;;5070270;28;20012;-94
2023/03/28 07:23:45;;;;;;;;;;;3.50;99.90;;;;;;5067042;28;20387;-91
2023/03/28 07:26:13;;;;;;;;;;;3.50;99.90;;;;;;5060646;28;20379;-92
2023/03/28 07:28:40;;;;;;;;;;;3.60;99.90;;;;;;5059761;28;19936;-92
2023/03/28 07:31:05;;;;;;;;;;;3.60;99.90;;;;;;5063372;28;20391;-93
2023/03/28 07:33:32;;;;;;;;;;;3.70;99.90;;;;;;5065997;28;19936;-91
2023/03/28 07:35:58;;;;;;;;;;;3.70;99.90;;;;;;5066444;28;19908;-92
2023/03/28 07:38:23;;;;;;;;;;;3.80;99.90;;;;;;5057881;28;19920;-93
2023/03/28 07:40:49;;;;;;;;;;;3.80;99.90;;;;;;5060588;28;19909;-93
2023/03/28 07:43:15;;;;;;;;;;;3.90;99.90;;;;;;5060215;28;20380;-92
2023/03/28 07:45:40;;;;;;;;;;;3.80;99.90;;;;;;5059119;28;19959;-92
2023/03/28 07:48:08;;;;;;;;;;;3.90;99.90;;;;;;5041605;28;19920;-95
2023/03/28 07:50:35;;;;;;;;;;;3.90;99.90;;;;;;5066040;28;19908;-90
2023/03/28 07:53:01;;;;;;;;;;;4.00;99.90;;;;;;5049412;28;19913;-90
2023/03/28 07:55:27;;;;;;;;;;;4.00;99.90;;;;;;5064320;28;20379;-89
2023/03/28 07:57:53;;;;;;;;;;;4.10;99.90;;;;;;5058674;28;19909;-92
2023/03/28 08:00:22;;;;;;;;;;;4.10;99.90;;;;;;5069899;28;19935;-91
2023/03/28 08:02:48;;;;;;;;;;;4.20;99.90;;;;;;5058842;28;19908;-96
2023/03/28 08:05:16;;;;;;;;;;;4.20;99.90;;;;;;5060922;28;19924;-93
2023/03/28 08:07:45;;;;;;;;;;;4.30;99.90;;;;;;5069300;28;19913;-94
2023/03/28 08:10:12;;;;;;;;;;;4.40;99.90;;;;;;5079616;28;19913;-92
2023/03/28 08:12:37;;;;;;;;;;;4.50;99.90;;;;;;5079937;28;19924;-93
2023/03/28 08:15:03;;;;;;;;;;;4.60;99.90;;;;;;5064116;28;19971;-90
2023/03/28 08:17:29;;;;;;;;;;;4.60;99.90;;;;;;5072756;28;19912;-91
2023/03/28 08:19:55;;;;;;;;;;;4.80;99.90;;;;;;5079621;28;19948;-90
2023/03/28 08:22:20;;;;;;;;;;;4.80;99.90;;;;;;5076871;28;19913;-90
2023/03/28 08:24:46;;;;;;;;;;;4.80;99.90;;;;;;5064693;28;20019;-91
2023/03/28 08:27:12;;;;;;;;;;;5.00;99.90;;;;;;5062987;28;19938;-89
2023/03/28 08:29:37;;;;;;;;;;;5.10;99.90;;;;;;5060848;28;19908;-91
2023/03/28 08:32:05;;;;;;;;;;;5.20;99.90;;;;;;5049816;28;19922;-91
2023/03/28 08:34:31;;;;;;;;;;;5.30;99.90;;;;;;5068430;28;19919;-94
2023/03/28 08:36:57;;;;;;;;;;;5.40;99.90;;;;;;5064753;28;19991;-93
2023/03/28 08:39:24;;;;;;;;;;;5.50;99.90;;;;;;5067239;28;20284;-94
2023/03/28 08:42:10;;;;;;;;;;;5.60;99.90;;;;;;5062155;28;19909;-96
2023/03/28 08:44:50;;;;;;;;;;;5.70;99.90;;;;;;5065188;28;19916;-92
2023/03/28 08:47:22;;;;;;;;;;;5.80;99.90;;;;;;5062083;28;19908;-95
2023/03/28 08:49:52;;;;;;;;;;;5.80;99.90;;;;;;5067645;28;19957;-91
2023/03/28 08:52:19;;;;;;;;;;;5.90;99.90;;;;;;5066452;28;19908;-91
2023/03/28 08:54:50;;;;;;;;;;;6.00;99.90;;;;;;5067807;28;19962;-93
2023/03/28 08:57:20;;;;;;;;;;;6.00;99.90;;;;;;5059564;28;19908;-94
2023/03/28 08:59:48;;;;;;;;;;;6.10;99.90;;;;;;5060466;28;20355;-91
2023/03/28 09:02:18;;;;;;;;;;;6.20;99.90;;;;;;5062624;28;19913;-95
2023/03/28 09:04:44;;;;;;;;;;;6.20;99.90;;;;;;5061753;28;20387;-95
2023/03/28 09:07:23;;;;;;;;;;;6.20;99.90;;;;;;5063031;28;19913;-87
2023/03/28 09:09:56;;;;;;;;;;;6.30;99.90;;;;;;5070234;28;19968;-95
2023/03/28 09:12:29;;;;;;;;;;;6.40;99.90;;;;;;5098863;28;19927;-90
2023/03/28 09:15:15;;;;;;;;;;;6.50;99.90;;;;;;5066276;28;19928;-93
2023/03/28 09:17:43;;;;;;;;;;;6.50;99.90;;;;;;5060620;28;19947;-92
2023/03/28 09:20:12;;;;;;;;;;;6.50;99.90;;;;;;5059894;28;20007;-90
2023/03/28 09:22:46;;;;;;;;;;;6.60;99.90;;;;;;5060340;28;19913;-90
2023/03/28 09:25:31;;;;;;;;;;;6.70;99.90;;;;;;5077825;28;19920;-90
2023/03/28 09:28:01;;;;;;;;;;;6.70;99.90;;;;;;5062071;28;19958;-93
2023/03/28 09:30:30;;;;;;;;;;;6.80;99.90;;;;;;5060571;28;19909;-94
2023/03/28 09:32:57;;;;;;;;;;;6.90;99.90;;;;;;5061821;28;19967;-95
2023/03/28 09:35:24;;;;;;;;;;;6.90;99.90;;;;;;5065306;28;19912;-91
2023/03/28 09:37:53;;;;;;;;;;;7.00;99.90;;;;;;5058678;28;20364;-92
2023/03/28 09:40:26;;;;;;;;;;;7.10;99.90;;;;;;5077397;28;20015;-92
2023/03/28 09:42:55;;;;;;;;;;;7.10;99.90;;;;;;5078140;28;19915;-91
2023/03/28 09:45:22;;;;;;;;;;;7.10;99.00;;;;;;5078658;28;19922;-90
2023/03/28 09:47:48;;;;;;;;;;;7.20;99.90;;;;;;5079682;28;19938;-90
2023/03/28 09:50:14;;;;;;;;;;;7.10;98.80;;;;;;5079007;28;19997;-92
2023/03/28 09:52:40;;;;;;;;;;;7.20;97.80;;;;;;5078864;28;19908;-93
2023/03/28 09:55:14;;;;;;;;;;;7.20;97.00;;;;;;5079583;28;19912;-91
2023/03/28 09:57:58;;;;;;;;;;;7.20;98.00;;;;;;5079265;28;19893;-92
2023/03/28 10:00:23;;;;;;;;;;;7.20;98.90;;;;;;5079407;28;19912;-92
2023/03/28 10:02:52;;;;;;;;;;;7.30;98.90;;;;;;5079778;28;19916;-92
2023/03/28 10:05:38;;;;;;;;;;;7.30;97.40;;;;;;5079408;28;19920;-92
2023/03/28 10:08:17;;;;;;;;;;;7.40;97.10;;;;;;5079892;28;20342;-92
2023/03/28 10:10:43;;;;;;;;;;;7.40;98.00;;;;;;5097295;28;19908;-92
2023/03/28 10:13:10;;;;;;;;;;;7.50;97.30;;;;;;5097557;28;19908;-92
2023/03/28 10:15:44;;;;;;;;;;;7.50;97.80;;;;;;5079746;28;19892;-92
2023/03/28 10:18:15;;;;;;;;;;;7.60;97.60;;;;;;5090418;28;19919;-91
2023/03/28 10:20:40;;;;;;;;;;;7.70;97.60;;;;;;5082209;28;19908;-92
2023/03/28 10:23:06;;;;;;;;;;;7.70;96.30;;;;;;5078805;28;19912;-91
2023/03/28 10:25:32;;;;;;;;;;;7.70;96.00;;;;;;5062615;28;19920;-93
2023/03/28 10:27:59;;;;;;;;;;;7.70;95.20;;;;;;5078299;28;19958;-91
2023/03/28 10:30:26;;;;;;;;;;;7.80;96.20;;;;;;5062301;28;20359;-92
2023/03/28 10:33:10;;;;;;;;;;;7.80;95.20;;;;;;5096616;28;20420;-92
2023/03/28 10:35:40;;;;;;;;;;;7.80;95.70;;;;;;5079794;28;19908;-90
2023/03/28 10:38:11;;;;;;;;;;;7.80;95.40;;;;;;5083812;28;20267;-90
2023/03/28 10:40:37;;;;;;;;;;;7.80;95.50;;;;;;5084114;28;19931;-91
2023/03/28 10:43:09;;;;;;;;;;;7.90;95.30;;;;;;5060966;28;19916;-93
2023/03/28 10:45:36;;;;;;;;;;;7.90;94.40;;;;;;5087154;28;19916;-92
2023/03/28 10:48:09;;;;;;;;;;;7.90;95.30;;;;;;5067431;28;19908;-88
2023/03/28 10:50:35;;;;;;;;;;;8.00;95.70;;;;;;5089287;28;19916;-90
2023/03/28 10:53:18;;;;;;;;;;;8.10;95.30;;;;;;5066811;28;20360;-92
2023/03/28 10:56:03;;;;;;;;;;;8.10;94.70;;;;;;5072577;28;19920;-92
2023/03/28 10:58:29;;;;;;;;;;;8.20;93.10;;;;;;5080685;28;19908;-93
2023/03/28 11:00:59;;;;;;;;;;;8.10;92.00;;;;;;5069804;28;19962;-90
2023/03/28 11:03:28;;;;;;;;;;;8.10;92.50;;;;;;5061720;28;19986;-92
2023/03/28 11:06:01;;;;;;;;;;;8.20;94.10;;;;;;5077123;28;19904;-90
2023/03/28 11:08:45;;;;;;;;;;;8.20;93.90;;;;;;5089563;28;19893;-89
2023/03/28 11:11:14;;;;;;;;;;;8.20;93.20;;;;;;5085843;28;19908;-91
2023/03/28 11:13:53;;;;;;;;;;;8.20;93.00;;;;;;5087949;28;20022;-89
2023/03/28 11:16:31;;;;;;;;;;;8.10;91.50;;;;;;5083784;28;20003;-92
2023/03/28 11:19:00;;;;;;;;;;;8.00;90.10;;;;;;5070419;28;19916;-91
2023/03/28 11:21:44;;;;;;;;;;;8.00;91.80;;;;;;5068275;28;19909;-90
2023/03/28 11:24:13;;;;;;;;;;;8.10;93.10;;;;;;5064770;28;19931;-89
2023/03/28 11:26:42;;;;;;;;;;;8.10;91.70;;;;;;5075020;28;19994;-89
2023/03/28 11:29:07;;;;;;;;;;;8.00;89.50;;;;;;5099799;28;19924;-90
2023/03/28 11:32:05;;;;;;;;;;;8.00;91.50;;;;;;5084162;28;19905;-95
2023/03/28 11:34:43;;;;;;;;;;;8.10;91.90;;;;;;5040474;28;19968;-92
2023/03/28 11:37:30;;;;;;;;;;;8.10;90.80;;;;;;5088507;28;19913;-91
2023/03/28 11:40:00;;;;;;;;;;;8.10;90.70;;;;;;5085776;28;19897;-89
2023/03/28 11:42:35;;;;;;;;;;;8.10;91.90;;;;;;5106401;28;19908;-89
2023/03/28 11:45:03;;;;;;;;;;;8.20;93.00;;;;;;5072219;28;19923;-90
2023/03/28 11:47:46;;;;;;;;;;;8.40;93.10;;;;;;5073971;28;20299;-89
2023/03/28 11:50:17;;;;;;;;;;;8.50;92.20;;;;;;5061211;28;20007;-91
2023/03/28 11:56:03;;;;;;;;;;;8.60;90.80;;;;;;5052181;28;19915;-90
2023/03/28 11:58:30;;;;;;;;;;;8.60;90.80;;;;;;5069486;28;20394;-92
2023/03/28 12:01:05;;;;;;;;;;;8.70;90.00;;;;;;5061019;28;19999;-89
2023/03/28 12:03:54;;;;;;;;;;;8.60;91.00;;;;;;5064382;28;19915;-94
2023/03/28 12:06:23;;;;;;;;;;;8.70;90.90;;;;;;5025495;28;20267;-91
2023/03/28 12:09:06;;;;;;;;;;;8.70;90.70;;;;;;5094192;28;19909;-92
2023/03/28 12:11:34;;;;;;;;;;;8.70;90.60;;;;;;5071904;28;20138;-90
2023/03/28 12:14:09;;;;;;;;;;;8.70;89.50;;;;;;5065834;28;19932;-90
2023/03/28 12:16:39;;;;;;;;;;;8.70;89.10;;;;;;5078965;28;19912;-91
2023/03/28 12:19:08;;;;;;;;;;;8.70;90.00;;;;;;5079347;28;20092;-93
2023/03/28 12:21:34;;;;;;;;;;;8.70;90.00;;;;;;5069104;28;19931;-92
2023/03/28 12:24:10;;;;;;;;;;;8.80;89.50;;;;;;5061624;28;19920;-94
2023/03/28 12:26:52;;;;;;;;;;;8.80;90.00;;;;;;5077099;28;19909;-91
2023/03/28 12:29:24;;;;;;;;;;;8.90;90.10;;;;;;5082355;28;19909;-92
2023/03/28 12:31:51;;;;;;;;;;;8.90;89.50;;;;;;5062409;28;19915;-92
2023/03/28 12:34:27;;;;;;;;;;;8.90;89.00;;;;;;5078024;28;19908;-93
2023/03/28 12:36:56;;;;;;;;;;;9.00;90.10;;;;;;5078004;28;19916;-92
2023/03/28 12:39:23;;;;;;;;;;;9.10;88.30;;;;;;5068135;28;19908;-93
2023/03/28 12:41:50;;;;;;;;;;;9.10;89.20;;;;;;5062976;28;19909;-92
2023/03/28 12:44:23;;;;;;;;;;;9.10;86.40;;;;;;5069241;28;20335;-92
2023/03/28 12:46:54;;;;;;;;;;;9.20;86.50;;;;;;5064055;28;19912;-89
2023/03/28 12:49:32;;;;;;;;;;;9.20;87.10;;;;;;5068647;28;20060;-92
2023/03/28 12:52:02;;;;;;;;;;;9.30;86.60;;;;;;5078121;28;19908;-90
2023/03/28 12:54:30;;;;;;;;;;;9.40;88.30;;;;;;5061936;28;19913;-91
2023/03/28 12:57:08;;;;;;;;;;;9.40;88.60;;;;;;5063066;28;20033;-90
2023/03/28 12:59:43;;;;;;;;;;;9.40;90.20;;;;;;5071956;28;19925;-90
2023/03/28 13:02:27;;;;;;;;;;;9.40;87.60;;;;;;5068690;28;19960;-91
2023/03/28 13:05:02;;;;;;;;;;;9.50;88.70;;;;;;5064431;28;19913;-95
2023/03/28 13:07:35;;;;;;;;;;;9.50;85.80;;;;;;5075333;28;19936;-94
2023/03/28 13:10:05;;;;;;;;;;;9.50;85.70;;;;;;5073191;28;19914;-90
2023/03/28 13:12:43;;;;;;;;;;;9.50;87.40;;;;;;5066992;28;19955;-91
2023/03/28 13:15:12;;;;;;;;;;;9.50;85.50;;;;;;5058750;28;20383;-91
2023/03/28 13:17:40;;;;;;;;;;;9.60;83.80;;;;;;5081339;28;19969;-92
2023/03/28 13:20:23;;;;;;;;;;;9.60;83.30;;;;;;5071982;28;19951;-93
2023/03/28 13:23:03;;;;;;;;;;;9.70;83.10;;;;;;5068106;28;20003;-94
2023/03/28 13:25:31;;;;;;;;;;;9.80;80.70;;;;;;5064055;28;19920;-95
2023/03/28 13:28:00;;;;;;;;;;;9.80;82.50;;;;;;5066567;28;19915;-93
2023/03/28 13:30:27;;;;;;;;;;;9.90;83.90;;;;;;5061181;28;19908;-93
2023/03/28 13:32:54;;;;;;;;;;;9.90;81.60;;;;;;5066577;28;19908;-90
2023/03/28 13:35:38;;;;;;;;;;;9.90;81.10;;;;;;5072342;28;20006;-93
2023/03/28 13:38:13;;;;;;;;;;;9.90;80.30;;;;;;5071219;28;19913;-93
2023/03/28 13:40:41;;;;;;;;;;;9.80;80.90;;;;;;5065580;28;19912;-96
2023/03/28 13:43:25;;;;;;;;;;;9.80;80.80;;;;;;5067850;28;19916;-92
2023/03/28 13:45:53;;;;;;;;;;;9.70;78.10;;;;;;5061407;28;19923;-93
2023/03/28 13:48:23;;;;;;;;;;;9.70;76.60;;;;;;5072139;28;19912;-95
2023/03/28 13:50:52;;;;;;;;;;;9.70;77.40;;;;;;5067046;28;20764;-94
2023/03/28 13:53:17;;;;;;;;;;;9.60;75.80;;;;;;5067186;28;19920;-94
2023/03/28 13:55:43;;;;;;;;;;;9.70;77.10;;;;;;5061170;28;20236;-93
2023/03/28 13:58:12;;;;;;;;;;;9.70;76.00;;;;;;5072736;28;20326;-91
2023/03/28 14:00:39;;;;;;;;;;;9.70;74.70;;;;;;5064435;28;19915;-90
2023/03/28 14:03:12;;;;;;;;;;;9.70;74.70;;;;;;5069584;28;19909;-95
2023/03/28 14:05:42;;;;;;;;;;;9.80;75.00;;;;;;5067139;28;19939;-91
2023/03/28 14:08:13;;;;;;;;;;;9.90;76.90;;;;;;5058318;28;19908;-91
2023/03/28 14:10:43;;;;;;;;;;;10.00;79.40;;;;;;5062329;28;19915;-89
2023/03/28 14:13:12;;;;;;;;;;;10.10;76.30;;;;;;5061290;28;20109;-90
2023/03/28 14:15:42;;;;;;;;;;;10.20;76.40;;;;;;5077575;28;19908;-89
2023/03/28 14:18:22;;;;;;;;;;;10.30;75.20;;;;;;5089515;28;19912;-91
2023/03/28 14:20:48;;;;;;;;;;;10.40;75.40;;;;;;5071056;28;19909;-92
2023/03/28 14:23:34;;;;;;;;;;;10.50;78.00;;;;;;5065644;28;20414;-91
2023/03/28 14:26:03;;;;;;;;;;;10.60;75.90;;;;;;5079164;28;20001;-91
2023/03/28 14:28:29;;;;;;;;;;;10.70;75.40;;;;;;5059002;28;19963;-90
2023/03/28 14:30:55;;;;;;;;;;;10.70;76.80;;;;;;5060937;28;19908;-89
2023/03/28 14:33:23;;;;;;;;;;;10.70;75.40;;;;;;5062450;28;20364;-92
2023/03/28 14:35:56;;;;;;;;;;;10.70;73.70;;;;;;5067098;28;19939;-89
2023/03/28 14:38:26;;;;;;;;;;;10.70;75.30;;;;;;5070017;28;19935;-91
2023/03/28 14:40:53;;;;;;;;;;;10.60;73.80;;;;;;5070133;28;19908;-90
2023/03/28 14:43:21;;;;;;;;;;;10.50;74.60;;;;;;5075719;28;19955;-90
2023/03/28 14:45:51;;;;;;;;;;;10.50;76.40;;;;;;5064572;28;20003;-91
2023/03/28 14:48:18;;;;;;;;;;;10.50;75.20;;;;;;5064868;28;19982;-91
2023/03/28 14:50:45;;;;;;;;;;;10.50;75.20;;;;;;5092455;28;19999;-91